sensor_id;sensor_type;location;lat;lon;timestamp;P1;P2;P0
74440;PMS7003;62870;54.692;25.284;2022-09-13T00:04:06;11;10.2;6.6
74440;PMS7003;62870;54.692;25.284;2022-09-13T00:08:20;11.2;9.8;6.6
74440;PMS7003;62870;54.692;25.284;2022-09-13T00:13:20;9.8;9.2;5.8
74440;PMS7003;62870;54.692;25.284;2022-09-13T00:19:04;9.4;8.8;6.2
74440;PMS7003;62870;54.692;25.284;2022-09-13T00:23:32;10.5;9.5;5.5
74440;PMS7003;62870;54.692;25.284;2022-09-13T00:28:43;8.8;8.4;6.4
74440;PMS7003;62870;54.692;25.284;2022-09-13T00:33:54;7.8;7.4;5.2
74440;PMS7003;62870;54.692;25.284;2022-09-13T00:38:52;10.2;9.2;5.6
74440;PMS7003;62870;54.692;25.284;2022-09-13T00:43:48;9.4;8;6
74440;PMS7003;62870;54.692;25.284;2022-09-13T00:48:56;9.4;8.4;5.4
74440;PMS7003;62870;54.692;25.284;2022-09-13T00:54:04;7.6;6.6;5
74440;PMS7003;62870;54.692;25.284;2022-09-13T00:58:32;8.4;8;5.6
74440;PMS7003;62870;54.692;25.284;2022-09-13T01:03:54;9.4;8.2;6.2
74440;PMS7003;62870;54.692;25.284;2022-09-13T01:09:02;9.4;8.4;5.4
74440;PMS7003;62870;54.692;25.284;2022-09-13T01:14:04;8.2;7.4;4.8
74440;PMS7003;62870;54.692;25.284;2022-09-13T01:19:04;9;7.8;5.4
74440;PMS7003;62870;54.692;25.284;2022-09-13T01:24:52;8.5;7.3;5
74440;PMS7003;62870;54.692;25.284;2022-09-13T01:28:36;10.4;9.6;5.4
74440;PMS7003;62870;54.692;25.284;2022-09-13T01:33:57;9.2;8.2;5.2
74440;PMS7003;62870;54.692;25.284;2022-09-13T01:39:03;8.2;7;5
74440;PMS7003;62870;54.692;25.284;2022-09-13T01:43:38;7.8;7.4;4.6
74440;PMS7003;62870;54.692;25.284;2022-09-13T01:48:33;9;8.6;5.4
74440;PMS7003;62870;54.692;25.284;2022-09-13T01:53:32;8.4;7.2;4.6
74440;PMS7003;62870;54.692;25.284;2022-09-13T01:59:03;8.4;7.6;5.4
74440;PMS7003;62870;54.692;25.284;2022-09-13T02:03:20;8.6;7.2;5
74440;PMS7003;62870;54.692;25.284;2022-09-13T02:08:45;7.8;7.4;5
74440;PMS7003;62870;54.692;25.284;2022-09-13T02:13:56;8.4;7.4;5
74440;PMS7003;62870;54.692;25.284;2022-09-13T02:19:09;9.4;8.4;5.2
74440;PMS7003;62870;54.692;25.284;2022-09-13T02:23:41;9;8.4;5.4
74440;PMS7003;62870;54.692;25.284;2022-09-13T02:29:07;9.3;8.3;5.3
74440;PMS7003;62870;54.692;25.284;2022-09-13T02:34:09;9.8;8;5.8
74440;PMS7003;62870;54.692;25.284;2022-09-13T02:39:00;10.4;9.6;5.8
74440;PMS7003;62870;54.692;25.284;2022-09-13T02:43:24;8.2;7.8;5.4
74440;PMS7003;62870;54.692;25.284;2022-09-13T02:48:35;11.6;9.6;5.6
74440;PMS7003;62870;54.692;25.284;2022-09-13T02:54:14;8.8;8.2;5.4
74440;PMS7003;62870;54.692;25.284;2022-09-13T02:58:33;9;7.4;5.2
74440;PMS7003;62870;54.692;25.284;2022-09-13T03:03:54;8.8;8;5.4
74440;PMS7003;62870;54.692;25.284;2022-09-13T03:08:52;8.6;8;5.4
74440;PMS7003;62870;54.692;25.284;2022-09-13T03:14:03;8.4;7.6;5.4
74440;PMS7003;62870;54.692;25.284;2022-09-13T03:18:50;9.2;9;5.4
74440;PMS7003;62870;54.692;25.284;2022-09-13T03:24:01;8.6;7.6;5.4
74440;PMS7003;62870;54.692;25.284;2022-09-13T03:28:30;9.8;8;6.3
74440;PMS7003;62870;54.692;25.284;2022-09-13T03:33:30;19;16.6;10.6
74440;PMS7003;62870;54.692;25.284;2022-09-13T03:38:34;10.4;9.4;6.4
74440;PMS7003;62870;54.692;25.284;2022-09-13T03:44:11;9;8.4;6
74440;PMS7003;62870;54.692;25.284;2022-09-13T03:48:54;9.2;8.8;5.8
74440;PMS7003;62870;54.692;25.284;2022-09-13T03:53:58;9.2;8.4;6.2
74440;PMS7003;62870;54.692;25.284;2022-09-13T03:58:42;9.2;8;5
74440;PMS7003;62870;54.692;25.284;2022-09-13T04:03:54;9.6;9.2;5.6
74440;PMS7003;62870;54.692;25.284;2022-09-13T04:09:08;11;9.8;6.8
74440;PMS7003;62870;54.692;25.284;2022-09-13T04:13:22;9.4;9;5.8
74440;PMS7003;62870;54.692;25.284;2022-09-13T04:18:44;10;8.8;5.6
74440;PMS7003;62870;54.692;25.284;2022-09-13T04:23:44;9.4;8.4;6
74440;PMS7003;62870;54.692;25.284;2022-09-13T04:28:32;9.3;9.3;6.8
74440;PMS7003;62870;54.692;25.284;2022-09-13T04:33:44;8.6;8.2;5.8
74440;PMS7003;62870;54.692;25.284;2022-09-13T04:38:45;10.8;9.8;6.8
74440;PMS7003;62870;54.692;25.284;2022-09-13T04:44:08;12;11;7.2
74440;PMS7003;62870;54.692;25.284;2022-09-13T04:49:08;10.2;9.2;6.8
74440;PMS7003;62870;54.692;25.284;2022-09-13T04:53:22;10.8;10;7.2
74440;PMS7003;62870;54.692;25.284;2022-09-13T04:59:08;10.2;10;7
74440;PMS7003;62870;54.692;25.284;2022-09-13T05:04:08;11;9.3;7
74440;PMS7003;62870;54.692;25.284;2022-09-13T05:08:34;8.8;7.8;5.2
74440;PMS7003;62870;54.692;25.284;2022-09-13T05:13:22;8.8;7.4;5.2
74440;PMS7003;62870;54.692;25.284;2022-09-13T05:18:24;9.5;8.8;6
74440;PMS7003;62870;54.692;25.284;2022-09-13T05:24:08;7.8;7.6;5.4
74440;PMS7003;62870;54.692;25.284;2022-09-13T05:28:57;7.8;7.4;5.8
74440;PMS7003;62870;54.692;25.284;2022-09-13T05:34:00;9.6;8;6
74440;PMS7003;62870;54.692;25.284;2022-09-13T05:38:54;7.6;7.4;5.6
74440;PMS7003;62870;54.692;25.284;2022-09-13T05:43:54;9.2;8.2;6.2
74440;PMS7003;62870;54.692;25.284;2022-09-13T05:48:42;6.5;6.3;4.5
74440;PMS7003;62870;54.692;25.284;2022-09-13T05:53:54;7;6.8;5.5
74440;PMS7003;62870;54.692;25.284;2022-09-13T05:59:10;8.6;8.4;5.4
74440;PMS7003;62870;54.692;25.284;2022-09-13T06:03:32;8.4;8.4;6.4
74440;PMS7003;62870;54.692;25.284;2022-09-13T06:08:23;8;7.4;5.6
74440;PMS7003;62870;54.692;25.284;2022-09-13T06:14:10;7.6;7.4;5.8
74440;PMS7003;62870;54.692;25.284;2022-09-13T06:19:08;7.2;6.8;5.2
74440;PMS7003;62870;54.692;25.284;2022-09-13T06:24:10;6.6;6.4;4.8
74440;PMS7003;62870;54.692;25.284;2022-09-13T06:28:42;10.2;9.2;6.4
74440;PMS7003;62870;54.692;25.284;2022-09-13T06:34:10;7.8;6;5
74440;PMS7003;62870;54.692;25.284;2022-09-13T06:39:10;9.2;8;6.4
74440;PMS7003;62870;54.692;25.284;2022-09-13T06:43:46;6;5.4;4.4
74440;PMS7003;62870;54.692;25.284;2022-09-13T06:48:46;4.8;4.8;4
74440;PMS7003;62870;54.692;25.284;2022-09-13T06:53:34;5.4;5;4
74440;PMS7003;62870;54.692;25.284;2022-09-13T06:58:32;5.6;5;3.4
74440;PMS7003;62870;54.692;25.284;2022-09-13T07:03:45;4.4;4.2;3.2
74440;PMS7003;62870;54.692;25.284;2022-09-13T07:08:44;5.2;3.8;3.2
74440;PMS7003;62870;54.692;25.284;2022-09-13T07:14:12;5.2;4.4;3.4
74440;PMS7003;62870;54.692;25.284;2022-09-13T07:18:55;5.5;5.3;4
74440;PMS7003;62870;54.692;25.284;2022-09-13T07:23:44;5.8;5.6;4.2
74440;PMS7003;62870;54.692;25.284;2022-09-13T07:29:03;5.5;5;3.8
74440;PMS7003;62870;54.692;25.284;2022-09-13T07:33:56;4.4;3.8;3.2
74440;PMS7003;62870;54.692;25.284;2022-09-13T07:39:10;3;2.8;2.2
74440;PMS7003;62870;54.692;25.284;2022-09-13T07:43:32;2.2;2;1.4
74440;PMS7003;62870;54.692;25.284;2022-09-13T07:48:22;1.6;1.4;1.4
74440;PMS7003;62870;54.692;25.284;2022-09-13T07:54:10;1.5;1;1
74440;PMS7003;62870;54.692;25.284;2022-09-13T07:58:58;0.8;0.6;0.2
74440;PMS7003;62870;54.692;25.284;2022-09-13T08:03:22;0.8;0.4;0.4
74440;PMS7003;62870;54.692;25.284;2022-09-13T08:08:54;1;0.6;0.4
74440;PMS7003;62870;54.692;25.284;2022-09-13T08:13:54;1.2;1;0.8
74440;PMS7003;62870;54.692;25.284;2022-09-13T08:18:44;1.8;1.6;1.4
74440;PMS7003;62870;54.692;25.284;2022-09-13T08:23:58;1;1;0.8
74440;PMS7003;62870;54.692;25.284;2022-09-13T08:29:10;1.6;1.6;1.2
74440;PMS7003;62870;54.692;25.284;2022-09-13T08:33:22;2;1.6;1.6
74440;PMS7003;62870;54.692;25.284;2022-09-13T08:38:23;2;1.6;1.4
74440;PMS7003;62870;54.692;25.284;2022-09-13T08:44:17;1.6;1.6;1.4
74440;PMS7003;62870;54.692;25.284;2022-09-13T08:49:13;1.2;0.8;0.6
74440;PMS7003;62870;54.692;25.284;2022-09-13T08:54:09;1.5;0.8;0.5
74440;PMS7003;62870;54.692;25.284;2022-09-13T09:00:35;1.2;1.2;1
74440;PMS7003;62870;54.692;25.284;2022-09-13T09:04:14;1.4;1.4;1
74440;PMS7003;62870;54.692;25.284;2022-09-13T09:09:18;1.4;1;1
74440;PMS7003;62870;54.692;25.284;2022-09-13T09:13:53;1.4;1.2;1.2
74440;PMS7003;62870;54.692;25.284;2022-09-13T09:18:58;2;1.6;1.2
74440;PMS7003;62870;54.692;25.284;2022-09-13T09:23:36;1.2;0.8;0.8
74440;PMS7003;62870;54.692;25.284;2022-09-13T09:28:23;1;1;1
74440;PMS7003;62870;54.692;25.284;2022-09-13T09:33:47;1;0.8;0.6
74440;PMS7003;62870;54.692;25.284;2022-09-13T09:38:44;1.2;1;1
74440;PMS7003;62870;54.692;25.284;2022-09-13T09:44:16;0.8;0.8;0.4
74440;PMS7003;62870;54.692;25.284;2022-09-13T09:48:55;1;0.6;0.6
74440;PMS7003;62870;54.692;25.284;2022-09-13T09:53:43;1.2;1;0.8
74440;PMS7003;62870;54.692;25.284;2022-09-13T09:58:45;1.2;0.8;0.8
74440;PMS7003;62870;54.692;25.284;2022-09-13T10:04:20;1;0.8;0.8
74440;PMS7003;62870;54.692;25.284;2022-09-13T10:09:16;2.4;2.2;2
74440;PMS7003;62870;54.692;25.284;2022-09-13T10:13:32;1.2;1.2;1
74440;PMS7003;62870;54.692;25.284;2022-09-13T10:18:22;1.3;1.3;0.8
74440;PMS7003;62870;54.692;25.284;2022-09-13T10:23:22;1.2;1;0.6
74440;PMS7003;62870;54.692;25.284;2022-09-13T10:29:08;1.6;1;1
74440;PMS7003;62870;54.692;25.284;2022-09-13T10:33:57;1.8;1.6;1.4
74440;PMS7003;62870;54.692;25.284;2022-09-13T10:39:03;0.6;0.6;0.4
74440;PMS7003;62870;54.692;25.284;2022-09-13T10:43:56;1.2;1.2;1
74440;PMS7003;62870;54.692;25.284;2022-09-13T10:48:54;1;1;0.8
74440;PMS7003;62870;54.692;25.284;2022-09-13T10:53:46;1;0.8;0.6
74440;PMS7003;62870;54.692;25.284;2022-09-13T10:59:15;0.8;0.8;0.4
74440;PMS7003;62870;54.692;25.284;2022-09-13T11:03:41;1.2;1.2;1
74440;PMS7003;62870;54.692;25.284;2022-09-13T11:08:28;1.4;0.8;0.8
74440;PMS7003;62870;54.692;25.284;2022-09-13T11:13:58;1.2;1.2;0.8
74440;PMS7003;62870;54.692;25.284;2022-09-13T11:20:23;3;3;2.8
74440;PMS7003;62870;54.692;25.284;2022-09-13T11:28:25;4.6;3.8;3
74440;PMS7003;62870;54.692;25.284;2022-09-13T11:33:54;3.8;3;2.6
74440;PMS7003;62870;54.692;25.284;2022-09-13T11:38:57;2.8;2.4;2
74440;PMS7003;62870;54.692;25.284;2022-09-13T11:44:17;1.8;1.8;1.4
74440;PMS7003;62870;54.692;25.284;2022-09-13T11:49:05;3;2;2
74440;PMS7003;62870;54.692;25.284;2022-09-13T11:58:25;1.8;1.8;1.8
74440;PMS7003;62870;54.692;25.284;2022-09-13T12:03:24;1.5;1.3;1.3
74440;PMS7003;62870;54.692;25.284;2022-09-13T12:08:45;1;1;1
74440;PMS7003;62870;54.692;25.284;2022-09-13T12:13:48;1.8;1.6;1.4
74440;PMS7003;62870;54.692;25.284;2022-09-13T12:18:47;1.4;1.4;1.2
74440;PMS7003;62870;54.692;25.284;2022-09-13T12:24:14;1.6;1.2;1.2
74440;PMS7003;62870;54.692;25.284;2022-09-13T12:28:45;1.8;1.8;1.6
74440;PMS7003;62870;54.692;25.284;2022-09-13T12:34:30;1.4;1.4;1.2
74440;PMS7003;62870;54.692;25.284;2022-09-13T12:39:59;1.6;1.6;1.6
74440;PMS7003;62870;54.692;25.284;2022-09-13T12:43:54;2.4;2;1.6
74440;PMS7003;62870;54.692;25.284;2022-09-13T12:48:28;3.6;3.4;2.8
74440;PMS7003;62870;54.692;25.284;2022-09-13T12:59:16;4.5;4.5;3.3
74440;PMS7003;62870;54.692;25.284;2022-09-13T13:03:58;3.8;3.4;2.8
74440;PMS7003;62870;54.692;25.284;2022-09-13T13:08:59;4.8;4.2;3.6
74440;PMS7003;62870;54.692;25.284;2022-09-13T13:13:36;5.2;5.2;4.4
74440;PMS7003;62870;54.692;25.284;2022-09-13T13:18:59;5.4;5.4;4.8
74440;PMS7003;62870;54.692;25.284;2022-09-13T13:23:44;3;2.6;2.4
74440;PMS7003;62870;54.692;25.284;2022-09-13T13:29:13;3.6;3.2;3
74440;PMS7003;62870;54.692;25.284;2022-09-13T13:33:23;6;5.4;4.4
74440;PMS7003;62870;54.692;25.284;2022-09-13T13:43:28;2.6;2.6;2.2
74440;PMS7003;62870;54.692;25.284;2022-09-13T13:49:48;1.6;1.6;1.4
74440;PMS7003;62870;54.692;25.284;2022-09-13T13:53:58;1.6;1;0.6
74440;PMS7003;62870;54.692;25.284;2022-09-13T13:58:50;1;1;1
74440;PMS7003;62870;54.692;25.284;2022-09-13T14:03:49;0.6;0.6;0.6
74440;PMS7003;62870;54.692;25.284;2022-09-13T14:09:02;0.8;0.6;0.6
74440;PMS7003;62870;54.692;25.284;2022-09-13T14:14:14;0.4;0.4;0.4
74440;PMS7003;62870;54.692;25.284;2022-09-13T14:18:54;1;0.3;0.3
74440;PMS7003;62870;54.692;25.284;2022-09-13T14:23:32;1.8;1.6;1.2
74440;PMS7003;62870;54.692;25.284;2022-09-13T14:28:34;3.8;2.8;2.2
74440;PMS7003;62870;54.692;25.284;2022-09-13T14:33:26;3.4;3;2.4
74440;PMS7003;62870;54.692;25.284;2022-09-13T14:38:23;1;0.4;0.4
74440;PMS7003;62870;54.692;25.284;2022-09-13T14:43:44;0;0;0
74440;PMS7003;62870;54.692;25.284;2022-09-13T14:49:14;0.2;0.2;0.2
74440;PMS7003;62870;54.692;25.284;2022-09-13T14:53:58;0;0;0
74440;PMS7003;62870;54.692;25.284;2022-09-13T14:58:47;0.2;0.2;0.2
74440;PMS7003;62870;54.692;25.284;2022-09-13T15:04:10;0;0;0
74440;PMS7003;62870;54.692;25.284;2022-09-13T15:08:58;0.2;0.2;0.2
74440;PMS7003;62870;54.692;25.284;2022-09-13T15:14:01;0.4;0.4;0.4
74440;PMS7003;62870;54.692;25.284;2022-09-13T15:18:23;0.6;0.6;0.6
74440;PMS7003;62870;54.692;25.284;2022-09-13T15:23:48;1.8;1.8;1.2
74440;PMS7003;62870;54.692;25.284;2022-09-13T15:29:12;1.2;1.2;1
74440;PMS7003;62870;54.692;25.284;2022-09-13T15:34:27;2.8;2.2;1.8
74440;PMS7003;62870;54.692;25.284;2022-09-13T15:39:11;3.4;3;2.6
74440;PMS7003;62870;54.692;25.284;2022-09-13T15:43:59;1.8;1.4;1
74440;PMS7003;62870;54.692;25.284;2022-09-13T15:48:59;1.4;1.4;1
74440;PMS7003;62870;54.692;25.284;2022-09-13T15:53:22;1.4;1.2;1
74440;PMS7003;62870;54.692;25.284;2022-09-13T15:58:58;1.4;1.4;1.2
74440;PMS7003;62870;54.692;25.284;2022-09-13T16:03:36;1.8;1.5;1.5
74440;PMS7003;62870;54.692;25.284;2022-09-13T16:08:22;1.8;1.2;1
74440;PMS7003;62870;54.692;25.284;2022-09-13T16:13:34;1.6;1;0.8
74440;PMS7003;62870;54.692;25.284;2022-09-13T16:19:15;1.4;1.2;0.8
74440;PMS7003;62870;54.692;25.284;2022-09-13T16:24:10;2.2;2;1.6
74440;PMS7003;62870;54.692;25.284;2022-09-13T16:29:11;2;1.8;1.6
74440;PMS7003;62870;54.692;25.284;2022-09-13T16:33:32;3.6;3.2;2.6
74440;PMS7003;62870;54.692;25.284;2022-09-13T16:39:12;5.6;4.4;3.8
74440;PMS7003;62870;54.692;25.284;2022-09-13T16:44:12;5;5;4.2
74440;PMS7003;62870;54.692;25.284;2022-09-13T16:48:22;4;3.8;2.8
74440;PMS7003;62870;54.692;25.284;2022-09-13T16:53:47;3.6;3.6;2.6
74440;PMS7003;62870;54.692;25.284;2022-09-13T16:58:35;3.8;3.4;2.8
74440;PMS7003;62870;54.692;25.284;2022-09-13T17:03:32;6.5;5;3.5
74440;PMS7003;62870;54.692;25.284;2022-09-13T17:08:45;5.6;4.8;4.2
74440;PMS7003;62870;54.692;25.284;2022-09-13T17:13:32;6.6;5.6;4.6
74440;PMS7003;62870;54.692;25.284;2022-09-13T17:19:14;5;4.8;3.4
74440;PMS7003;62870;54.692;25.284;2022-09-13T17:23:44;6;5.2;4
74440;PMS7003;62870;54.692;25.284;2022-09-13T17:28:34;8.4;7.4;5
74440;PMS7003;62870;54.692;25.284;2022-09-13T17:34:00;7.8;7;5.6
74440;PMS7003;62870;54.692;25.284;2022-09-13T17:38:58;9.2;7.8;5.6
74440;PMS7003;62870;54.692;25.284;2022-09-13T17:44:12;10.8;10;7
74440;PMS7003;62870;54.692;25.284;2022-09-13T17:48:32;12.2;10.2;7.4
74440;PMS7003;62870;54.692;25.284;2022-09-13T17:53:40;9.6;9.2;6.8
74440;PMS7003;62870;54.692;25.284;2022-09-13T17:59:14;11;9.8;7
74440;PMS7003;62870;54.692;25.284;2022-09-13T18:03:56;10.5;10;6.5
74440;PMS7003;62870;54.692;25.284;2022-09-13T18:08:33;10.8;10.2;7.4
74440;PMS7003;62870;54.692;25.284;2022-09-13T18:13:56;9.2;8.2;6
74440;PMS7003;62870;54.692;25.284;2022-09-13T18:18:59;9;7.8;5.4
74440;PMS7003;62870;54.692;25.284;2022-09-13T18:23:46;7.6;7;5.2
74440;PMS7003;62870;54.692;25.284;2022-09-13T18:28:59;8.6;8;5.4
74440;PMS7003;62870;54.692;25.284;2022-09-13T18:34:11;7.8;7;5.4
74440;PMS7003;62870;54.692;25.284;2022-09-13T18:38:46;9.2;6.8;5
74440;PMS7003;62870;54.692;25.284;2022-09-13T18:43:35;9.4;8.4;5.6
74440;PMS7003;62870;54.692;25.284;2022-09-13T18:48:35;10.6;8.8;6.2
74440;PMS7003;62870;54.692;25.284;2022-09-13T18:54:13;8;7.2;4.8
74440;PMS7003;62870;54.692;25.284;2022-09-13T18:58:58;8.2;6.6;5.2
74440;PMS7003;62870;54.692;25.284;2022-09-13T19:03:32;8.6;6.8;5.2
74440;PMS7003;62870;54.692;25.284;2022-09-13T19:08:32;5;5;4
74440;PMS7003;62870;54.692;25.284;2022-09-13T19:13:56;7.3;6.7;5
74440;PMS7003;62870;54.692;25.284;2022-09-13T19:19:12;18.6;15.6;10.6
74440;PMS7003;62870;54.692;25.284;2022-09-13T19:23:45;10.4;9;6.4
74440;PMS7003;62870;54.692;25.284;2022-09-13T19:28:22;5.2;5.2;4
74440;PMS7003;62870;54.692;25.284;2022-09-13T19:33:44;4.8;4.4;3.4
74440;PMS7003;62870;54.692;25.284;2022-09-13T19:38:22;4.6;4.4;3.2
74440;PMS7003;62870;54.692;25.284;2022-09-13T19:43:22;31.8;25.3;12.8
74440;PMS7003;62870;54.692;25.284;2022-09-13T19:48:40;3.8;3.2;2.4
74440;PMS7003;62870;54.692;25.284;2022-09-13T19:53:35;4.6;3.6;2.8
74440;PMS7003;62870;54.692;25.284;2022-09-13T19:59:00;3.2;2.8;2.2
74440;PMS7003;62870;54.692;25.284;2022-09-13T20:03:50;5;3.8;2.8
74440;PMS7003;62870;54.692;25.284;2022-09-13T20:09:08;3.6;3.4;2.6
74440;PMS7003;62870;54.692;25.284;2022-09-13T20:14:13;3.4;2.6;2.2
74440;PMS7003;62870;54.692;25.284;2022-09-13T20:18:22;2.4;2.4;1.8
74440;PMS7003;62870;54.692;25.284;2022-09-13T20:23:57;4;3.2;2.4
74440;PMS7003;62870;54.692;25.284;2022-09-13T20:28:34;3.4;3;2.2
74440;PMS7003;62870;54.692;25.284;2022-09-13T20:34:10;3.8;3;2.6
74440;PMS7003;62870;54.692;25.284;2022-09-13T20:38:54;3;2.6;1.8
74440;PMS7003;62870;54.692;25.284;2022-09-13T20:43:56;3.8;3.8;2.8
74440;PMS7003;62870;54.692;25.284;2022-09-13T20:48:56;3.2;3;2.6
74440;PMS7003;62870;54.692;25.284;2022-09-13T20:53:58;3.2;2.8;2
74440;PMS7003;62870;54.692;25.284;2022-09-13T20:58:46;3;2.6;1.8
74440;PMS7003;62870;54.692;25.284;2022-09-13T21:03:58;3.6;3.6;2.8
74440;PMS7003;62870;54.692;25.284;2022-09-13T21:08:22;3.8;3.4;2.2
74440;PMS7003;62870;54.692;25.284;2022-09-13T21:13:22;3.4;3.2;2.6
74440;PMS7003;62870;54.692;25.284;2022-09-13T21:18:22;4;4;3
74440;PMS7003;62870;54.692;25.284;2022-09-13T21:24:11;4.2;4;2.8
74440;PMS7003;62870;54.692;25.284;2022-09-13T21:28:57;3.8;3.6;2.6
74440;PMS7003;62870;54.692;25.284;2022-09-13T21:33:34;4.8;4.6;3.4
74440;PMS7003;62870;54.692;25.284;2022-09-13T21:38:34;4.4;4;3.2
74440;PMS7003;62870;54.692;25.284;2022-09-13T21:43:56;4.5;3.8;3
74440;PMS7003;62870;54.692;25.284;2022-09-13T21:49:11;4.6;4.2;3
74440;PMS7003;62870;54.692;25.284;2022-09-13T21:53:47;4.6;4.4;3.6
74440;PMS7003;62870;54.692;25.284;2022-09-13T21:58:33;4.8;4.4;3.4
74440;PMS7003;62870;54.692;25.284;2022-09-13T22:03:22;6.2;4.6;3.2
74440;PMS7003;62870;54.692;25.284;2022-09-13T22:08:29;4.5;4.5;3.5
74440;PMS7003;62870;54.692;25.284;2022-09-13T22:13:31;5;5;4
74440;PMS7003;62870;54.692;25.284;2022-09-13T22:18:45;4.5;3;3
74440;PMS7003;62870;54.692;25.284;2022-09-13T22:44:10;4.5;3;3
74440;PMS7003;62870;54.692;25.284;2022-09-13T22:48:34;5.3;4.5;3.3
74440;PMS7003;62870;54.692;25.284;2022-09-13T22:53:23;7;5.4;3.8
74440;PMS7003;62870;54.692;25.284;2022-09-13T22:58:22;6.6;6.6;4.2
74440;PMS7003;62870;54.692;25.284;2022-09-13T23:04:06;6.6;6.2;4.6
74440;PMS7003;62870;54.692;25.284;2022-09-13T23:08:56;5.8;5.6;4.2
74440;PMS7003;62870;54.692;25.284;2022-09-13T23:13:20;5.8;5.4;3.4
74440;PMS7003;62870;54.692;25.284;2022-09-13T23:18:54;5;4.3;3.3
74440;PMS7003;62870;54.692;25.284;2022-09-13T23:23:57;5.2;4.4;3.2
74440;PMS7003;62870;54.692;25.284;2022-09-13T23:28:45;4;3.6;2.8
74440;PMS7003;62870;54.692;25.284;2022-09-13T23:33:52;4.4;4.4;3.4
74440;PMS7003;62870;54.692;25.284;2022-09-13T23:39:08;5.2;4.4;3.4
74440;PMS7003;62870;54.692;25.284;2022-09-13T23:43:20;4.6;4;3.4
74440;PMS7003;62870;54.692;25.284;2022-09-13T23:48:30;5;4;3.2
74440;PMS7003;62870;54.692;25.284;2022-09-13T23:53:55;5.8;4.6;3.4
74440;PMS7003;62870;54.692;25.284;2022-09-13T23:59:06;3.8;3.4;2.6
